Terminal Aerodrome Forecast
Issued by NWS

Home | Current Version | Previous Version | Text Only | Print | Product List | Glossary On
Versions: 1 2 3 4 5 6 7 8 9 10 11 12 13 14 15 16 17 18 19 20 21 22 23 24 25 26 27 28 29 30 31 32 33
000
FTUS43 KLOT 281720
TAFDPA
TAF
KDPA 281720Z 2818/2918 07009KT P6SM SKC
     FM290000 13005KT P6SM FEW250
     FM290900 18012KT P6SM FEW150 OVC200
     FM291200 19016G24KT P6SM OVC120
     FM291600 20021G33KT 3SM -SHRA OVC030 PROB30 2916/2918 2SM
      -SNPL=

USA.gov is the U.S. government's official web portal to all federal, state and local government web resources and services.